sensor_id;sensor_type;location;lat;lon;timestamp;pressure;altitude;pressure_sealevel;temperature;humidity
72226;BME280;60130;52.250;5.048;2023-04-01T00:00:00;655.0;;;10.2;0.0
72226;BME280;60130;52.250;5.048;2023-04-01T00:05:00;655.0;;;10.2;0.0
72226;BME280;60130;52.250;5.048;2023-04-01T00:10:00;654.9;;;10.1;0.0
72226;BME280;60130;52.250;5.048;2023-04-01T00:15:00;654.8;;;10.0;0.0
72226;BME280;60130;52.250;5.048;2023-04-01T00:20:00;654.8;;;10.0;0.0
72226;BME280;60130;52.250;5.048;2023-04-01T00:25:00;654.8;;;10.0;0.0
72226;BME280;60130;52.250;5.048;2023-04-01T00:30:00;654.8;;;10.0;0.0
72226;BME280;60130;52.250;5.048;2023-04-01T00:35:00;654.6;;;9.9;0.0
72226;BME280;60130;52.250;5.048;2023-04-01T00:40:00;654.7;;;9.9;0.0
72226;BME280;60130;52.250;5.048;2023-04-01T00:50:00;654.6;;;9.9;0.0
72226;BME280;60130;52.250;5.048;2023-04-01T00:55:01;654.6;;;9.8;0.0
72226;BME280;60130;52.250;5.048;2023-04-01T01:00:00;654.6;;;9.8;0.0
72226;BME280;60130;52.250;5.048;2023-04-01T01:05:00;654.6;;;9.9;0.0
72226;BME280;60130;52.250;5.048;2023-04-01T01:10:03;654.5;;;9.8;0.0
72226;BME280;60130;52.250;5.048;2023-04-01T01:15:08;654.4;;;9.7;0.0
72226;BME280;60130;52.250;5.048;2023-04-01T01:20:14;654.4;;;9.7;0.0
72226;BME280;60130;52.250;5.048;2023-04-01T01:25:09;654.4;;;9.7;0.0
72226;BME280;60130;52.250;5.048;2023-04-01T01:30:10;654.4;;;9.7;0.0
72226;BME280;60130;52.250;5.048;2023-04-01T01:35:14;654.4;;;9.7;0.0
72226;BME280;60130;52.250;5.048;2023-04-01T01:40:03;654.4;;;9.7;0.0
72226;BME280;60130;52.250;5.048;2023-04-01T01:45:00;654.3;;;9.6;0.0
72226;BME280;60130;52.250;5.048;2023-04-01T01:50:01;654.3;;;9.6;0.0
72226;BME280;60130;52.250;5.048;2023-04-01T01:55:00;654.3;;;9.6;0.0
72226;BME280;60130;52.250;5.048;2023-04-01T02:00:04;654.2;;;9.5;0.0
72226;BME280;60130;52.250;5.048;2023-04-01T02:05:01;654.3;;;9.6;0.0
72226;BME280;60130;52.250;5.048;2023-04-01T02:10:00;654.3;;;9.6;0.0
72226;BME280;60130;52.250;5.048;2023-04-01T02:15:03;654.4;;;9.7;0.0
72226;BME280;60130;52.250;5.048;2023-04-01T02:20:02;654.4;;;9.7;0.0
72226;BME280;60130;52.250;5.048;2023-04-01T02:25:03;654.4;;;9.7;0.0
72226;BME280;60130;52.250;5.048;2023-04-01T02:30:00;654.5;;;9.8;0.0
72226;BME280;60130;52.250;5.048;2023-04-01T02:35:00;654.5;;;9.7;0.0
72226;BME280;60130;52.250;5.048;2023-04-01T02:40:00;654.5;;;9.8;0.0
72226;BME280;60130;52.250;5.048;2023-04-01T02:45:00;654.5;;;9.8;0.0
72226;BME280;60130;52.250;5.048;2023-04-01T02:50:00;654.6;;;9.9;0.0
72226;BME280;60130;52.250;5.048;2023-04-01T02:55:00;654.6;;;9.9;0.0
72226;BME280;60130;52.250;5.048;2023-04-01T03:00:00;654.6;;;9.9;0.0
72226;BME280;60130;52.250;5.048;2023-04-01T03:05:00;654.7;;;9.9;0.0
72226;BME280;60130;52.250;5.048;2023-04-01T03:10:00;654.7;;;10.0;0.0
72226;BME280;60130;52.250;5.048;2023-04-01T03:15:00;654.8;;;10.1;0.0
72226;BME280;60130;52.250;5.048;2023-04-01T03:20:00;654.8;;;10.1;0.0
72226;BME280;60130;52.250;5.048;2023-04-01T03:25:00;654.8;;;10.1;0.0
72226;BME280;60130;52.250;5.048;2023-04-01T03:30:00;654.9;;;10.1;0.0
72226;BME280;60130;52.250;5.048;2023-04-01T03:35:00;655.0;;;10.2;0.0
72226;BME280;60130;52.250;5.048;2023-04-01T03:40:00;655.0;;;10.3;0.0
72226;BME280;60130;52.250;5.048;2023-04-01T03:45:00;655.1;;;10.3;0.0
72226;BME280;60130;52.250;5.048;2023-04-01T03:50:00;655.1;;;10.3;0.0
72226;BME280;60130;52.250;5.048;2023-04-01T03:55:00;655.1;;;10.3;0.0
72226;BME280;60130;52.250;5.048;2023-04-01T04:00:00;655.1;;;10.3;0.0
72226;BME280;60130;52.250;5.048;2023-04-01T04:05:00;655.1;;;10.4;0.0
72226;BME280;60130;52.250;5.048;2023-04-01T04:10:00;655.1;;;10.4;0.0
72226;BME280;60130;52.250;5.048;2023-04-01T04:15:00;655.1;;;10.4;0.0
72226;BME280;60130;52.250;5.048;2023-04-01T04:20:00;655.2;;;10.4;0.0
72226;BME280;60130;52.250;5.048;2023-04-01T04:25:00;655.1;;;10.4;0.0
72226;BME280;60130;52.250;5.048;2023-04-01T04:30:00;655.2;;;10.5;0.0
72226;BME280;60130;52.250;5.048;2023-04-01T04:35:00;655.2;;;10.4;0.0
72226;BME280;60130;52.250;5.048;2023-04-01T04:40:00;655.2;;;10.4;0.0
72226;BME280;60130;52.250;5.048;2023-04-01T04:45:00;655.3;;;10.5;0.0
72226;BME280;60130;52.250;5.048;2023-04-01T04:50:00;655.3;;;10.5;0.0
72226;BME280;60130;52.250;5.048;2023-04-01T04:55:00;655.2;;;10.4;0.0
72226;BME280;60130;52.250;5.048;2023-04-01T05:00:00;655.3;;;10.5;0.0
72226;BME280;60130;52.250;5.048;2023-04-01T05:05:00;655.2;;;10.5;0.0
72226;BME280;60130;52.250;5.048;2023-04-01T05:10:00;655.2;;;10.4;0.0
72226;BME280;60130;52.250;5.048;2023-04-01T05:15:00;655.2;;;10.4;0.0
72226;BME280;60130;52.250;5.048;2023-04-01T05:20:00;655.1;;;10.3;0.0
72226;BME280;60130;52.250;5.048;2023-04-01T05:25:00;655.2;;;10.4;0.0
72226;BME280;60130;52.250;5.048;2023-04-01T05:30:00;655.1;;;10.3;0.0
72226;BME280;60130;52.250;5.048;2023-04-01T05:35:00;655.1;;;10.4;0.0
72226;BME280;60130;52.250;5.048;2023-04-01T05:40:00;655.2;;;10.4;0.0
72226;BME280;60130;52.250;5.048;2023-04-01T05:45:00;655.1;;;10.3;0.0
72226;BME280;60130;52.250;5.048;2023-04-01T05:50:00;655.0;;;10.3;0.0
72226;BME280;60130;52.250;5.048;2023-04-01T05:55:00;655.1;;;10.3;0.0
72226;BME280;60130;52.250;5.048;2023-04-01T06:00:00;655.1;;;10.3;0.0
72226;BME280;60130;52.250;5.048;2023-04-01T06:05:08;655.1;;;10.3;0.0
72226;BME280;60130;52.250;5.048;2023-04-01T06:10:00;655.1;;;10.3;0.0
72226;BME280;60130;52.250;5.048;2023-04-01T06:15:08;655.1;;;10.3;0.0
72226;BME280;60130;52.250;5.048;2023-04-01T06:20:05;655.1;;;10.3;0.0
72226;BME280;60130;52.250;5.048;2023-04-01T06:25:07;655.1;;;10.3;0.0
72226;BME280;60130;52.250;5.048;2023-04-01T06:30:16;655.1;;;10.3;0.0
72226;BME280;60130;52.250;5.048;2023-04-01T06:35:15;655.1;;;10.4;0.0
72226;BME280;60130;52.250;5.048;2023-04-01T06:40:17;655.1;;;10.3;0.0
72226;BME280;60130;52.250;5.048;2023-04-01T06:45:06;655.2;;;10.5;0.0
72226;BME280;60130;52.250;5.048;2023-04-01T06:50:07;655.2;;;10.5;0.0
72226;BME280;60130;52.250;5.048;2023-04-01T06:55:16;655.2;;;10.4;0.0
72226;BME280;60130;52.250;5.048;2023-04-01T07:00:03;655.2;;;10.4;0.0
72226;BME280;60130;52.250;5.048;2023-04-01T07:05:01;655.2;;;10.5;0.0
72226;BME280;60130;52.250;5.048;2023-04-01T07:10:05;655.2;;;10.5;0.0
72226;BME280;60130;52.250;5.048;2023-04-01T07:15:05;655.2;;;10.4;0.0
72226;BME280;60130;52.250;5.048;2023-04-01T07:20:04;655.2;;;10.4;0.0
72226;BME280;60130;52.250;5.048;2023-04-01T07:25:03;655.1;;;10.4;0.0
72226;BME280;60130;52.250;5.048;2023-04-01T07:30:01;655.2;;;10.5;0.0
72226;BME280;60130;52.250;5.048;2023-04-01T07:35:11;655.2;;;10.5;0.0
72226;BME280;60130;52.250;5.048;2023-04-01T07:40:09;655.2;;;10.5;0.0
72226;BME280;60130;52.250;5.048;2023-04-01T07:45:07;655.2;;;10.5;0.0
72226;BME280;60130;52.250;5.048;2023-04-01T07:50:08;655.2;;;10.5;0.0
72226;BME280;60130;52.250;5.048;2023-04-01T07:55:06;655.3;;;10.6;0.0
72226;BME280;60130;52.250;5.048;2023-04-01T08:00:06;655.4;;;10.7;0.0
72226;BME280;60130;52.250;5.048;2023-04-01T08:05:04;655.5;;;10.7;0.0
72226;BME280;60130;52.250;5.048;2023-04-01T08:10:04;655.6;;;10.9;0.0
72226;BME280;60130;52.250;5.048;2023-04-01T08:15:07;655.7;;;10.9;0.0
72226;BME280;60130;52.250;5.048;2023-04-01T08:20:11;655.8;;;11.0;0.0
72226;BME280;60130;52.250;5.048;2023-04-01T08:25:02;655.8;;;11.0;0.0
72226;BME280;60130;52.250;5.048;2023-04-01T08:30:04;655.8;;;11.0;0.0
72226;BME280;60130;52.250;5.048;2023-04-01T08:35:07;655.9;;;11.2;0.0
72226;BME280;60130;52.250;5.048;2023-04-01T08:40:05;655.9;;;11.1;0.0
72226;BME280;60130;52.250;5.048;2023-04-01T08:45:10;656.1;;;11.3;0.0
72226;BME280;60130;52.250;5.048;2023-04-01T08:55:17;656.5;;;11.7;0.0
72226;BME280;60130;52.250;5.048;2023-04-01T09:00:04;656.5;;;11.7;0.0
72226;BME280;60130;52.250;5.048;2023-04-01T09:10:20;656.3;;;11.5;0.0
72226;BME280;60130;52.250;5.048;2023-04-01T09:15:07;656.4;;;11.6;0.0
72226;BME280;60130;52.250;5.048;2023-04-01T09:20:07;656.6;;;11.7;0.0
72226;BME280;60130;52.250;5.048;2023-04-01T09:25:12;656.6;;;11.7;0.0
72226;BME280;60130;52.250;5.048;2023-04-01T09:30:18;656.9;;;12.0;0.0
72226;BME280;60130;52.250;5.048;2023-04-01T09:35:05;657.2;;;12.2;0.0
72226;BME280;60130;52.250;5.048;2023-04-01T09:40:13;657.2;;;12.2;0.0
72226;BME280;60130;52.250;5.048;2023-04-01T09:45:04;657.1;;;12.1;0.0
72226;BME280;60130;52.250;5.048;2023-04-01T09:50:14;657.2;;;12.2;0.0
72226;BME280;60130;52.250;5.048;2023-04-01T09:55:10;657.0;;;12.0;0.0
72226;BME280;60130;52.250;5.048;2023-04-01T10:00:15;657.0;;;12.1;0.0
72226;BME280;60130;52.250;5.048;2023-04-01T10:10:20;657.2;;;12.2;0.0
72226;BME280;60130;52.250;5.048;2023-04-01T10:20:08;657.1;;;12.1;0.0
72226;BME280;60130;52.250;5.048;2023-04-01T10:25:16;657.4;;;12.4;0.0
72226;BME280;60130;52.250;5.048;2023-04-01T10:35:14;657.6;;;12.5;0.0
72226;BME280;60130;52.250;5.048;2023-04-01T10:40:19;657.4;;;12.3;0.0
72226;BME280;60130;52.250;5.048;2023-04-01T10:45:17;657.6;;;12.4;0.0
72226;BME280;60130;52.250;5.048;2023-04-01T10:50:14;657.6;;;12.5;0.0
72226;BME280;60130;52.250;5.048;2023-04-01T10:55:15;657.8;;;12.6;0.0
72226;BME280;60130;52.250;5.048;2023-04-01T11:00:13;658.2;;;12.9;0.0
72226;BME280;60130;52.250;5.048;2023-04-01T11:05:20;658.5;;;13.1;0.0
72226;BME280;60130;52.250;5.048;2023-04-01T11:20:14;657.9;;;12.7;0.0
72226;BME280;60130;52.250;5.048;2023-04-01T11:25:07;657.6;;;12.5;0.0
72226;BME280;60130;52.250;5.048;2023-04-01T11:30:12;657.8;;;12.6;0.0
72226;BME280;60130;52.250;5.048;2023-04-01T11:35:22;657.5;;;12.4;0.0
72226;BME280;60130;52.250;5.048;2023-04-01T11:40:06;657.9;;;12.7;0.0
72226;BME280;60130;52.250;5.048;2023-04-01T11:45:12;658.0;;;12.8;0.0
72226;BME280;60130;52.250;5.048;2023-04-01T11:50:12;658.1;;;12.8;0.0
72226;BME280;60130;52.250;5.048;2023-04-01T11:55:06;658.3;;;13.0;0.0
72226;BME280;60130;52.250;5.048;2023-04-01T12:00:14;658.5;;;13.1;0.0
72226;BME280;60130;52.250;5.048;2023-04-01T12:05:08;658.5;;;13.1;0.0
72226;BME280;60130;52.250;5.048;2023-04-01T12:10:05;658.2;;;13.0;0.0
72226;BME280;60130;52.250;5.048;2023-04-01T12:15:06;658.2;;;12.9;0.0
72226;BME280;60130;52.250;5.048;2023-04-01T12:20:16;658.5;;;13.1;0.0
72226;BME280;60130;52.250;5.048;2023-04-01T12:25:12;658.1;;;12.8;0.0
72226;BME280;60130;52.250;5.048;2023-04-01T12:35:13;658.2;;;13.0;0.0
72226;BME280;60130;52.250;5.048;2023-04-01T12:40:09;658.3;;;13.0;0.0
72226;BME280;60130;52.250;5.048;2023-04-01T12:45:11;658.7;;;13.2;0.0
72226;BME280;60130;52.250;5.048;2023-04-01T12:50:13;660.0;;;13.6;0.0
72226;BME280;60130;52.250;5.048;2023-04-01T13:00:12;660.7;;;13.9;0.0
72226;BME280;60130;52.250;5.048;2023-04-01T13:05:15;658.9;;;13.5;0.0
72226;BME280;60130;52.250;5.048;2023-04-01T13:10:05;658.5;;;13.3;0.0
72226;BME280;60130;52.250;5.048;2023-04-01T13:15:12;657.6;;;12.6;0.0
72226;BME280;60130;52.250;5.048;2023-04-01T13:20:06;657.2;;;12.2;0.0
72226;BME280;60130;52.250;5.048;2023-04-01T13:25:05;657.0;;;12.1;0.0
72226;BME280;60130;52.250;5.048;2023-04-01T13:30:07;656.9;;;12.0;0.0
72226;BME280;60130;52.250;5.048;2023-04-01T13:35:10;656.7;;;11.8;0.0
72226;BME280;60130;52.250;5.048;2023-04-01T13:40:13;656.5;;;11.6;0.0
72226;BME280;60130;52.250;5.048;2023-04-01T13:45:02;656.4;;;11.6;0.0
72226;BME280;60130;52.250;5.048;2023-04-01T13:50:20;656.3;;;11.5;0.0
72226;BME280;60130;52.250;5.048;2023-04-01T13:55:05;656.3;;;11.5;0.0
72226;BME280;60130;52.250;5.048;2023-04-01T14:00:10;656.1;;;11.3;0.0
72226;BME280;60130;52.250;5.048;2023-04-01T14:05:10;656.1;;;11.3;0.0
72226;BME280;60130;52.250;5.048;2023-04-01T14:10:14;656.0;;;11.2;0.0
72226;BME280;60130;52.250;5.048;2023-04-01T14:15:11;656.0;;;11.3;0.0
72226;BME280;60130;52.250;5.048;2023-04-01T14:20:13;656.1;;;11.3;0.0
72226;BME280;60130;52.250;5.048;2023-04-01T14:25:16;656.1;;;11.3;0.0
72226;BME280;60130;52.250;5.048;2023-04-01T14:30:11;655.9;;;11.1;0.0
72226;BME280;60130;52.250;5.048;2023-04-01T14:35:16;656.0;;;11.2;0.0
72226;BME280;60130;52.250;5.048;2023-04-01T14:40:16;655.9;;;11.1;0.0
72226;BME280;60130;52.250;5.048;2023-04-01T14:45:06;655.8;;;11.1;0.0
72226;BME280;60130;52.250;5.048;2023-04-01T14:50:06;655.8;;;11.0;0.0
72226;BME280;60130;52.250;5.048;2023-04-01T14:55:00;655.7;;;10.9;0.0
72226;BME280;60130;52.250;5.048;2023-04-01T15:00:09;655.5;;;10.8;0.0
72226;BME280;60130;52.250;5.048;2023-04-01T15:05:06;655.5;;;10.8;0.0
72226;BME280;60130;52.250;5.048;2023-04-01T15:10:05;655.5;;;10.8;0.0
72226;BME280;60130;52.250;5.048;2023-04-01T15:15:10;655.6;;;10.8;0.0
72226;BME280;60130;52.250;5.048;2023-04-01T15:20:13;655.6;;;10.9;0.0
72226;BME280;60130;52.250;5.048;2023-04-01T15:25:17;655.6;;;10.8;0.0
72226;BME280;60130;52.250;5.048;2023-04-01T15:30:06;655.6;;;10.8;0.0
72226;BME280;60130;52.250;5.048;2023-04-01T15:35:08;655.4;;;10.7;0.0
72226;BME280;60130;52.250;5.048;2023-04-01T15:40:11;655.4;;;10.7;0.0
72226;BME280;60130;52.250;5.048;2023-04-01T15:45:07;655.3;;;10.6;0.0
72226;BME280;60130;52.250;5.048;2023-04-01T15:50:19;655.3;;;10.6;0.0
72226;BME280;60130;52.250;5.048;2023-04-01T15:55:13;655.3;;;10.6;0.0
72226;BME280;60130;52.250;5.048;2023-04-01T16:00:13;655.4;;;10.6;0.0
72226;BME280;60130;52.250;5.048;2023-04-01T16:05:06;655.3;;;10.6;0.0
72226;BME280;60130;52.250;5.048;2023-04-01T16:10:08;655.3;;;10.6;0.0
72226;BME280;60130;52.250;5.048;2023-04-01T16:15:10;655.3;;;10.6;0.0
72226;BME280;60130;52.250;5.048;2023-04-01T16:20:02;655.3;;;10.6;0.0
72226;BME280;60130;52.250;5.048;2023-04-01T16:25:19;655.2;;;10.5;0.0
72226;BME280;60130;52.250;5.048;2023-04-01T16:30:03;655.2;;;10.5;0.0
72226;BME280;60130;52.250;5.048;2023-04-01T16:35:10;655.2;;;10.4;0.0
72226;BME280;60130;52.250;5.048;2023-04-01T16:40:10;655.1;;;10.4;0.0
72226;BME280;60130;52.250;5.048;2023-04-01T16:45:08;655.0;;;10.3;0.0
72226;BME280;60130;52.250;5.048;2023-04-01T16:50:06;655.0;;;10.3;0.0
72226;BME280;60130;52.250;5.048;2023-04-01T16:55:03;655.0;;;10.3;0.0
72226;BME280;60130;52.250;5.048;2023-04-01T17:00:10;655.0;;;10.3;0.0
72226;BME280;60130;52.250;5.048;2023-04-01T17:05:03;654.9;;;10.2;0.0
72226;BME280;60130;52.250;5.048;2023-04-01T17:10:16;654.9;;;10.2;0.0
72226;BME280;60130;52.250;5.048;2023-04-01T17:15:05;654.9;;;10.2;0.0
72226;BME280;60130;52.250;5.048;2023-04-01T17:20:09;654.7;;;10.0;0.0
72226;BME280;60130;52.250;5.048;2023-04-01T17:25:13;654.5;;;9.8;0.0
72226;BME280;60130;52.250;5.048;2023-04-01T17:30:12;654.3;;;9.7;0.0
72226;BME280;60130;52.250;5.048;2023-04-01T17:35:03;654.3;;;9.6;0.0
72226;BME280;60130;52.250;5.048;2023-04-01T17:40:08;654.3;;;9.7;0.0
72226;BME280;60130;52.250;5.048;2023-04-01T17:45:04;654.3;;;9.6;0.0
72226;BME280;60130;52.250;5.048;2023-04-01T17:50:09;654.3;;;9.6;0.0
72226;BME280;60130;52.250;5.048;2023-04-01T17:55:20;654.3;;;9.6;0.0
72226;BME280;60130;52.250;5.048;2023-04-01T18:00:03;654.3;;;9.6;0.0
72226;BME280;60130;52.250;5.048;2023-04-01T18:05:15;654.4;;;9.7;0.0
72226;BME280;60130;52.250;5.048;2023-04-01T18:10:12;654.3;;;9.6;0.0
72226;BME280;60130;52.250;5.048;2023-04-01T18:15:05;654.2;;;9.5;0.0
72226;BME280;60130;52.250;5.048;2023-04-01T18:20:06;654.2;;;9.5;0.0
72226;BME280;60130;52.250;5.048;2023-04-01T18:25:05;654.2;;;9.5;0.0
72226;BME280;60130;52.250;5.048;2023-04-01T18:30:05;654.1;;;9.4;0.0
72226;BME280;60130;52.250;5.048;2023-04-01T18:35:12;654.1;;;9.4;0.0
72226;BME280;60130;52.250;5.048;2023-04-01T18:40:11;654.2;;;9.5;0.0
72226;BME280;60130;52.250;5.048;2023-04-01T18:45:09;654.0;;;9.4;0.0
72226;BME280;60130;52.250;5.048;2023-04-01T18:50:07;653.8;;;9.2;0.0
72226;BME280;60130;52.250;5.048;2023-04-01T18:55:20;653.8;;;9.1;0.0
72226;BME280;60130;52.250;5.048;2023-04-01T19:00:05;653.8;;;9.1;0.0
72226;BME280;60130;52.250;5.048;2023-04-01T19:05:04;653.8;;;9.2;0.0
72226;BME280;60130;52.250;5.048;2023-04-01T19:10:07;653.8;;;9.1;0.0
72226;BME280;60130;52.250;5.048;2023-04-01T19:15:16;653.8;;;9.1;0.0
72226;BME280;60130;52.250;5.048;2023-04-01T19:20:06;653.7;;;9.0;0.0
72226;BME280;60130;52.250;5.048;2023-04-01T19:25:15;653.6;;;8.9;0.0
72226;BME280;60130;52.250;5.048;2023-04-01T19:30:10;653.6;;;8.9;0.0
72226;BME280;60130;52.250;5.048;2023-04-01T19:35:08;653.5;;;8.8;0.0
72226;BME280;60130;52.250;5.048;2023-04-01T19:40:13;653.5;;;8.9;0.0
72226;BME280;60130;52.250;5.048;2023-04-01T19:45:07;653.5;;;8.8;0.0
72226;BME280;60130;52.250;5.048;2023-04-01T19:50:05;653.4;;;8.8;0.0
72226;BME280;60130;52.250;5.048;2023-04-01T19:55:06;653.4;;;8.8;0.0
72226;BME280;60130;52.250;5.048;2023-04-01T20:00:06;653.5;;;8.8;0.0
72226;BME280;60130;52.250;5.048;2023-04-01T20:05:04;653.4;;;8.7;0.0
72226;BME280;60130;52.250;5.048;2023-04-01T20:10:04;653.2;;;8.6;0.0
72226;BME280;60130;52.250;5.048;2023-04-01T20:15:03;653.1;;;8.5;0.0
72226;BME280;60130;52.250;5.048;2023-04-01T20:20:02;653.1;;;8.4;0.0
72226;BME280;60130;52.250;5.048;2023-04-01T20:25:05;653.0;;;8.4;0.0
72226;BME280;60130;52.250;5.048;2023-04-01T20:30:12;653.0;;;8.4;0.0
72226;BME280;60130;52.250;5.048;2023-04-01T20:35:14;653.1;;;8.4;0.0
72226;BME280;60130;52.250;5.048;2023-04-01T20:45:10;653.1;;;8.4;0.0
72226;BME280;60130;52.250;5.048;2023-04-01T20:50:07;653.0;;;8.4;0.0
72226;BME280;60130;52.250;5.048;2023-04-01T20:55:18;652.9;;;8.2;0.0
72226;BME280;60130;52.250;5.048;2023-04-01T21:00:08;652.8;;;8.1;0.0
72226;BME280;60130;52.250;5.048;2023-04-01T21:05:22;652.8;;;8.1;0.0
72226;BME280;60130;52.250;5.048;2023-04-01T21:10:12;652.8;;;8.1;0.0
72226;BME280;60130;52.250;5.048;2023-04-01T21:15:11;652.8;;;8.2;0.0
72226;BME280;60130;52.250;5.048;2023-04-01T21:20:10;652.8;;;8.1;0.0
72226;BME280;60130;52.250;5.048;2023-04-01T21:25:17;652.7;;;8.0;0.0
72226;BME280;60130;52.250;5.048;2023-04-01T21:30:11;652.6;;;8.0;0.0
72226;BME280;60130;52.250;5.048;2023-04-01T21:35:05;652.7;;;8.0;0.0
72226;BME280;60130;52.250;5.048;2023-04-01T21:40:17;652.7;;;8.0;0.0
72226;BME280;60130;52.250;5.048;2023-04-01T21:45:05;652.6;;;8.0;0.0
72226;BME280;60130;52.250;5.048;2023-04-01T21:50:09;652.7;;;8.0;0.0
72226;BME280;60130;52.250;5.048;2023-04-01T21:55:18;652.6;;;8.0;0.0
72226;BME280;60130;52.250;5.048;2023-04-01T22:00:14;652.5;;;7.9;0.0
72226;BME280;60130;52.250;5.048;2023-04-01T22:05:06;652.4;;;7.8;0.0
72226;BME280;60130;52.250;5.048;2023-04-01T22:10:03;652.3;;;7.7;0.0
72226;BME280;60130;52.250;5.048;2023-04-01T22:15:08;652.4;;;7.8;0.0
72226;BME280;60130;52.250;5.048;2023-04-01T22:20:10;652.3;;;7.7;0.0
72226;BME280;60130;52.250;5.048;2023-04-01T22:25:04;652.4;;;7.8;0.0
72226;BME280;60130;52.250;5.048;2023-04-01T22:30:06;652.4;;;7.8;0.0
72226;BME280;60130;52.250;5.048;2023-04-01T22:35:06;652.3;;;7.7;0.0
72226;BME280;60130;52.250;5.048;2023-04-01T22:40:13;652.2;;;7.6;0.0
72226;BME280;60130;52.250;5.048;2023-04-01T22:45:10;652.2;;;7.6;0.0
72226;BME280;60130;52.250;5.048;2023-04-01T22:50:05;652.2;;;7.6;0.0
72226;BME280;60130;52.250;5.048;2023-04-01T22:55:04;652.2;;;7.6;0.0
72226;BME280;60130;52.250;5.048;2023-04-01T23:00:05;652.2;;;7.6;0.0
72226;BME280;60130;52.250;5.048;2023-04-01T23:05:02;652.0;;;7.5;0.0
72226;BME280;60130;52.250;5.048;2023-04-01T23:10:02;652.0;;;7.5;0.0
72226;BME280;60130;52.250;5.048;2023-04-01T23:15:01;652.2;;;7.6;0.0
72226;BME280;60130;52.250;5.048;2023-04-01T23:20:06;652.1;;;7.5;0.0
72226;BME280;60130;52.250;5.048;2023-04-01T23:25:04;652.0;;;7.4;0.0
72226;BME280;60130;52.250;5.048;2023-04-01T23:30:00;651.9;;;7.3;0.0
72226;BME280;60130;52.250;5.048;2023-04-01T23:35:00;651.9;;;7.4;0.0
72226;BME280;60130;52.250;5.048;2023-04-01T23:40:00;651.9;;;7.3;0.0
72226;BME280;60130;52.250;5.048;2023-04-01T23:45:02;651.9;;;7.3;0.0
72226;BME280;60130;52.250;5.048;2023-04-01T23:50:03;651.7;;;7.1;0.0
72226;BME280;60130;52.250;5.048;2023-04-01T23:55:08;651.6;;;7.1;0.0
